createdAt,value
2019-05-20T00:02:24.389Z,99146.28
2019-05-20T00:04:42.524Z,99153.63
2019-05-20T00:07:09.984Z,99146.80
2019-05-20T00:09:37.702Z,99151.92
2019-05-20T00:12:05.164Z,99149.39
2019-05-20T00:14:32.430Z,99151.70
2019-05-20T00:17:01.647Z,99144.53
2019-05-20T00:19:29.559Z,99145.53
2019-05-20T00:21:58.146Z,99145.25
2019-05-20T00:24:25.961Z,99144.12
2019-05-20T00:26:53.429Z,99150.05
2019-05-20T00:29:21.274Z,99145.90
2019-05-20T00:31:48.635Z,99141.55
2019-05-20T00:34:32.715Z,99143.81
2019-05-20T00:36:47.753Z,99148.61
2019-05-20T00:39:19.740Z,99143.75
2019-05-20T00:41:47.609Z,99140.36
2019-05-20T00:44:16.196Z,99139.77
2019-05-20T00:46:44.213Z,99140.22
2019-05-20T00:49:11.745Z,99143.55
2019-05-20T00:51:39.592Z,99146.55
2019-05-20T00:54:07.453Z,99143.23
2019-05-20T00:56:35.968Z,99149.48
2019-05-20T00:59:04.004Z,99150.41
2019-05-20T01:01:33.343Z,99149.55
2019-05-20T01:04:00.689Z,99149.30
2019-05-20T01:06:28.557Z,99163.14
2019-05-20T01:08:56.177Z,99164.68
2019-05-20T01:11:23.680Z,99171.64
2019-05-20T01:13:52.373Z,99167.20
2019-05-20T01:16:20.349Z,99163.33
2019-05-20T01:18:47.700Z,99160.92
2019-05-20T01:21:15.052Z,99157.73
2019-05-20T01:23:45.499Z,99154.17
2019-05-20T01:26:13.292Z,99149.54
2019-05-20T01:28:40.803Z,99147.73
2019-05-20T01:31:08.474Z,99149.29
2019-05-20T01:33:35.960Z,99148.55
2019-05-20T01:36:03.930Z,99145.05
2019-05-20T01:38:31.494Z,99145.16
2019-05-20T01:40:58.945Z,99148.08
2019-05-20T01:43:26.560Z,99141.20
2019-05-20T01:45:54.493Z,99143.45
2019-05-20T01:48:22.041Z,99151.02
2019-05-20T01:50:49.488Z,99137.77
2019-05-20T01:53:17.464Z,99148.28
2019-05-20T01:55:45.225Z,99151.67
2019-05-20T01:58:13.053Z,99158.45
2019-05-20T02:00:42.727Z,99155.63
2019-05-20T02:03:10.169Z,99163.75
2019-05-20T02:05:38.114Z,99176.52
2019-05-20T02:08:05.731Z,99178.70
2019-05-20T02:10:33.177Z,99173.92
2019-05-20T02:13:00.632Z,99167.95
2019-05-20T02:15:37.925Z,99165.95
2019-05-20T02:18:05.317Z,99159.96
2019-05-20T02:20:32.669Z,99165.16
2019-05-20T02:23:20.809Z,99162.66
2019-05-20T02:25:49.706Z,99163.06
2019-05-20T02:28:17.263Z,99162.20
2019-05-20T02:30:45.441Z,99161.41
2019-05-20T02:33:12.736Z,99163.31
2019-05-20T02:35:40.246Z,99161.91
2019-05-20T02:38:07.624Z,99167.95
2019-05-20T02:40:35.586Z,99178.72
2019-05-20T02:43:02.947Z,99188.64
2019-05-20T02:45:30.420Z,99186.02
2019-05-20T02:47:57.789Z,99185.41
2019-05-20T02:50:25.757Z,99177.67
2019-05-20T02:52:53.415Z,99172.44
2019-05-20T02:55:21.003Z,99174.13
2019-05-20T02:57:48.326Z,99177.17
2019-05-20T03:00:17.130Z,99170.84
2019-05-20T03:02:44.695Z,99165.59
2019-05-20T03:05:12.410Z,99166.05
2019-05-20T03:07:39.712Z,99164.45
2019-05-20T03:10:09.227Z,99162.41
2019-05-20T03:12:36.716Z,99158.02
2019-05-20T03:15:04.783Z,99155.81
2019-05-20T03:17:32.835Z,99154.17
2019-05-20T03:20:00.199Z,99159.02
2019-05-20T03:22:27.616Z,99164.34
2019-05-20T03:24:55.094Z,99161.80
2019-05-20T03:27:23.066Z,99166.19
2019-05-20T03:29:50.429Z,99162.10
2019-05-20T03:32:18.080Z,99164.00
2019-05-20T03:34:56.951Z,99159.31
2019-05-20T03:37:14.742Z,99169.86
2019-05-20T03:39:42.088Z,99165.94
2019-05-20T03:42:09.643Z,99170.10
2019-05-20T03:44:37.413Z,99167.09
2019-05-20T03:47:04.770Z,99162.68
2019-05-20T03:49:32.137Z,99165.24
2019-05-20T03:52:00.906Z,99164.15
2019-05-20T03:54:28.569Z,99170.13
2019-05-20T03:56:56.134Z,99178.62
2019-05-20T03:59:23.542Z,99183.95
2019-05-20T04:01:51.171Z,99194.09
2019-05-20T04:04:18.614Z,99198.73
2019-05-20T04:06:45.991Z,99208.05
2019-05-20T04:09:13.242Z,99211.91
2019-05-20T04:11:40.710Z,99217.34
2019-05-20T04:14:08.166Z,99221.13
2019-05-20T04:16:35.944Z,99217.13
2019-05-20T04:19:03.365Z,99206.38
2019-05-20T04:21:31.111Z,99201.69
2019-05-20T04:24:01.289Z,99202.60
2019-05-20T04:26:27.846Z,99212.63
2019-05-20T04:28:55.454Z,99207.22
2019-05-20T04:31:22.827Z,99209.45
2019-05-20T04:33:50.577Z,99205.09
2019-05-20T04:36:17.909Z,99204.17
2019-05-20T04:38:45.808Z,99200.11
2019-05-20T04:41:13.681Z,99202.92
2019-05-20T04:43:41.876Z,99225.64
2019-05-20T04:46:09.233Z,99227.02
2019-05-20T04:48:37.827Z,99236.12
2019-05-20T04:51:05.304Z,99234.59
2019-05-20T04:53:36.442Z,99226.55
2019-05-20T04:56:05.567Z,99208.27
2019-05-20T04:58:32.885Z,99205.52
2019-05-20T05:01:02.686Z,99205.72
2019-05-20T05:03:29.946Z,99210.72
2019-05-20T05:05:59.381Z,99203.15
2019-05-20T05:08:28.066Z,99205.91
2019-05-20T05:10:55.781Z,99208.17
2019-05-20T05:13:23.567Z,99207.98
2019-05-20T05:15:51.275Z,99214.39
2019-05-20T05:18:19.412Z,99215.06
2019-05-20T05:20:46.984Z,99212.59
2019-05-20T05:23:14.539Z,99208.17
2019-05-20T05:25:42.102Z,99213.81
2019-05-20T05:28:10.167Z,99214.50
2019-05-20T05:30:38.794Z,99211.40
2019-05-20T05:33:06.225Z,99207.98
2019-05-20T05:35:33.503Z,99207.94
2019-05-20T05:38:02.002Z,99210.63
2019-05-20T05:40:31.001Z,99212.52
2019-05-20T05:42:58.540Z,99216.28
2019-05-20T05:45:30.261Z,99214.78
2019-05-20T05:47:58.471Z,99221.09
2019-05-20T05:50:26.550Z,99230.20
2019-05-20T05:52:55.747Z,99229.36
2019-05-20T05:55:23.225Z,99226.01
2019-05-20T05:57:51.215Z,99231.63
2019-05-20T06:00:19.724Z,99238.72
2019-05-20T06:02:47.175Z,99238.23
2019-05-20T06:05:14.641Z,99245.62
2019-05-20T06:07:42.499Z,99241.22
2019-05-20T06:10:10.191Z,99241.04
2019-05-20T06:12:37.621Z,99229.25
2019-05-20T06:15:05.333Z,99231.91
2019-05-20T06:17:33.015Z,99236.20
2019-05-20T06:20:00.515Z,99233.22
2019-05-20T06:22:28.025Z,99242.23
2019-05-20T06:25:05.879Z,99251.21
2019-05-20T06:27:42.101Z,99248.27
2019-05-20T06:30:10.804Z,99257.43
2019-05-20T06:32:40.729Z,99268.34
2019-05-20T06:35:08.742Z,99267.77
2019-05-20T06:37:39.984Z,99265.45
2019-05-20T06:40:07.652Z,99261.35
2019-05-20T06:42:36.060Z,99267.26
2019-05-20T06:45:04.961Z,99270.36
2019-05-20T06:47:33.104Z,99269.92
2019-05-20T06:50:00.475Z,99280.30
2019-05-20T06:52:35.934Z,99275.03
2019-05-20T06:54:58.260Z,99276.02
2019-05-20T06:57:25.774Z,99274.20
2019-05-20T06:59:53.338Z,99275.98
2019-05-20T07:02:21.296Z,99277.00
2019-05-20T07:04:49.273Z,99276.42
2019-05-20T07:07:21.712Z,99280.20
2019-05-20T07:09:49.076Z,99273.92
2019-05-20T07:12:16.521Z,99281.37
2019-05-20T07:14:44.608Z,99287.44
2019-05-20T07:17:11.953Z,99288.88
2019-05-20T07:19:39.944Z,99296.66
2019-05-20T07:22:07.585Z,99298.36
2019-05-20T07:24:35.052Z,99301.77
2019-05-20T07:27:02.507Z,99302.05
2019-05-20T07:29:29.901Z,99301.82
2019-05-20T07:31:57.226Z,99302.63
2019-05-20T07:34:25.752Z,99296.88
2019-05-20T07:37:03.230Z,99299.94
2019-05-20T07:39:25.940Z,99306.48
2019-05-20T07:41:53.637Z,99306.48
2019-05-20T07:44:21.246Z,99309.06
2019-05-20T07:46:49.097Z,99306.25
2019-05-20T07:49:17.155Z,99303.58
2019-05-20T07:51:46.014Z,99303.16
2019-05-20T07:54:18.240Z,99301.70
2019-05-20T07:56:49.081Z,99300.03
2019-05-20T07:59:20.030Z,99291.69
2019-05-20T08:01:47.821Z,99301.43
2019-05-20T08:04:15.232Z,99295.61
2019-05-20T08:06:43.022Z,99299.13
2019-05-20T08:09:10.576Z,99290.65
2019-05-20T08:11:38.207Z,99298.45
2019-05-20T08:14:05.828Z,99303.80
2019-05-20T08:16:33.896Z,99305.61
2019-05-20T08:19:01.422Z,99312.20
2019-05-20T08:21:29.082Z,99309.53
2019-05-20T08:23:56.671Z,99312.78
2019-05-20T08:26:24.371Z,99310.17
2019-05-20T08:28:51.914Z,99305.24
2019-05-20T08:31:19.502Z,99305.57
2019-05-20T08:33:47.383Z,99303.67
2019-05-20T08:36:15.152Z,99304.03
2019-05-20T08:38:42.501Z,99312.77
2019-05-20T08:41:10.146Z,99304.45
2019-05-20T08:43:37.957Z,99310.55
2019-05-20T08:46:05.525Z,99313.60
2019-05-20T08:48:34.620Z,99313.09
2019-05-20T08:51:02.149Z,99316.38
2019-05-20T08:53:29.838Z,99314.61
2019-05-20T08:55:57.284Z,99318.42
2019-05-20T08:58:25.065Z,99324.52
2019-05-20T09:00:52.633Z,99322.59
2019-05-20T09:03:20.283Z,99324.70
2019-05-20T09:05:47.635Z,99331.47
2019-05-20T09:08:14.988Z,99335.51
2019-05-20T09:10:42.545Z,99333.57
2019-05-20T09:13:10.015Z,99336.22
2019-05-20T09:15:37.359Z,99329.14
2019-05-20T09:18:04.837Z,99331.81
2019-05-20T09:20:32.703Z,99333.81
2019-05-20T09:23:02.670Z,99334.17
2019-05-20T09:25:30.742Z,99332.66
2019-05-20T09:27:58.605Z,99329.66
2019-05-20T09:30:25.992Z,99339.17
2019-05-20T09:32:53.769Z,99336.00
2019-05-20T09:35:21.346Z,99331.90
2019-05-20T09:37:49.365Z,99330.03
2019-05-20T09:40:34.094Z,99329.48
2019-05-20T09:43:01.935Z,99333.23
2019-05-20T09:45:31.627Z,99339.61
2019-05-20T09:47:59.655Z,99338.92
2019-05-20T09:50:27.357Z,99333.47
2019-05-20T09:52:55.290Z,99337.48
2019-05-20T09:55:22.915Z,99337.37
2019-05-20T09:57:50.404Z,99337.44
2019-05-20T10:00:19.256Z,99337.36
2019-05-20T10:02:47.241Z,99341.11
2019-05-20T10:05:15.002Z,99348.52
2019-05-20T10:07:42.662Z,99345.69
2019-05-20T10:10:10.419Z,99346.41
2019-05-20T10:12:46.259Z,99348.55
2019-05-20T10:15:09.088Z,99349.12
2019-05-20T10:17:36.676Z,99346.02
2019-05-20T10:20:04.949Z,99344.46
2019-05-20T10:22:32.566Z,99340.92
2019-05-20T10:25:00.080Z,99335.50
2019-05-20T10:27:27.750Z,99340.38
2019-05-20T10:29:55.958Z,99348.91
2019-05-20T10:32:23.479Z,99348.52
2019-05-20T10:34:51.042Z,99349.84
2019-05-20T10:37:18.409Z,99353.52
2019-05-20T10:39:47.222Z,99347.38
2019-05-20T10:42:14.581Z,99357.08
2019-05-20T10:44:44.915Z,99352.23
2019-05-20T10:47:14.210Z,99353.75
2019-05-20T10:49:42.182Z,99363.28
2019-05-20T10:52:09.534Z,99364.28
2019-05-20T10:54:38.735Z,99359.44
2019-05-20T10:57:07.945Z,99362.72
2019-05-20T10:59:35.698Z,99367.55
2019-05-20T11:02:03.187Z,99370.13
2019-05-20T11:04:30.727Z,99374.62
2019-05-20T11:06:58.050Z,99367.23
2019-05-20T11:09:26.162Z,99361.98
2019-05-20T11:11:53.717Z,99359.69
2019-05-20T11:14:21.371Z,99357.45
2019-05-20T11:16:48.934Z,99365.08
2019-05-20T11:19:16.805Z,99355.56
2019-05-20T11:21:44.152Z,99362.05
2019-05-20T11:24:11.811Z,99367.53
2019-05-20T11:26:39.478Z,99364.86
2019-05-20T11:29:07.677Z,99363.63
2019-05-20T11:31:35.274Z,99369.20
2019-05-20T11:34:02.776Z,99366.95
2019-05-20T11:36:30.122Z,99367.28
2019-05-20T11:38:57.988Z,99369.73
2019-05-20T11:41:52.018Z,99366.02
2019-05-20T11:43:58.334Z,99363.07
2019-05-20T11:46:25.719Z,99361.28
2019-05-20T11:48:53.555Z,99364.75
2019-05-20T11:51:21.026Z,99351.61
2019-05-20T11:53:49.033Z,99351.39
2019-05-20T11:56:16.546Z,99351.66
2019-05-20T11:58:44.539Z,99353.84
2019-05-20T12:01:12.089Z,99356.81
2019-05-20T12:03:39.416Z,99362.47
2019-05-20T12:06:07.671Z,99359.09
2019-05-20T12:08:35.410Z,99359.81
2019-05-20T12:11:02.675Z,99358.16
2019-05-20T12:13:30.625Z,99353.87
2019-05-20T12:15:58.038Z,99357.18
2019-05-20T12:18:25.453Z,99359.05
2019-05-20T12:20:53.298Z,99357.70
2019-05-20T12:23:21.335Z,99354.48
2019-05-20T12:25:49.137Z,99355.72
2019-05-20T12:28:16.598Z,99352.09
2019-05-20T12:30:44.063Z,99349.80
2019-05-20T12:33:19.875Z,99350.98
2019-05-20T12:35:41.330Z,99351.59
2019-05-20T12:38:08.772Z,99353.56
2019-05-20T12:40:36.258Z,99355.02
2019-05-20T12:43:05.250Z,99361.86
2019-05-20T12:45:32.714Z,99350.23
2019-05-20T12:48:00.183Z,99347.26
2019-05-20T12:50:27.565Z,99342.35
2019-05-20T12:52:54.906Z,99344.59
2019-05-20T12:55:22.857Z,99337.33
2019-05-20T12:57:50.415Z,99336.95
2019-05-20T13:00:18.802Z,99332.71
2019-05-20T13:02:46.152Z,99332.92
2019-05-20T13:05:14.520Z,99330.05
2019-05-20T13:07:41.882Z,99330.23
2019-05-20T13:10:27.014Z,99328.04
2019-05-20T13:12:39.202Z,99322.80
2019-05-20T13:15:07.726Z,99323.08
2019-05-20T13:17:35.357Z,99324.47
2019-05-20T13:20:03.578Z,99326.34
2019-05-20T13:22:31.344Z,99330.70
2019-05-20T13:24:58.705Z,99329.04
2019-05-20T13:27:27.186Z,99325.91
2019-05-20T13:29:54.641Z,99324.50
2019-05-20T13:32:22.305Z,99322.50
2019-05-20T13:34:49.862Z,99316.78
2019-05-20T13:37:17.474Z,99322.75
2019-05-20T13:39:44.876Z,99322.23
2019-05-20T13:42:12.658Z,99329.60
2019-05-20T13:44:41.586Z,99330.33
2019-05-20T13:47:08.993Z,99334.50
2019-05-20T13:49:36.505Z,99333.50
2019-05-20T13:52:03.999Z,99330.73
2019-05-20T13:54:31.472Z,99334.91
2019-05-20T13:56:58.928Z,99330.28
2019-05-20T13:59:26.790Z,99328.20
2019-05-20T14:01:54.249Z,99330.20
2019-05-20T14:04:21.896Z,99327.05
2019-05-20T14:06:49.675Z,99330.73
2019-05-20T14:09:24.124Z,99327.89
2019-05-20T14:12:05.868Z,99335.97
2019-05-20T14:14:33.879Z,99327.39
2019-05-20T14:17:01.876Z,99337.11
2019-05-20T14:19:29.390Z,99339.13
2019-05-20T14:21:56.754Z,99339.27
2019-05-20T14:24:25.427Z,99334.53
2019-05-20T14:26:53.262Z,99329.34
2019-05-20T14:29:22.609Z,99321.51
2019-05-20T14:31:49.963Z,99323.25
2019-05-20T14:34:17.398Z,99315.67
2019-05-20T14:36:45.902Z,99317.55
2019-05-20T14:39:13.562Z,99311.05
2019-05-20T14:41:41.479Z,99310.91
2019-05-20T14:44:08.890Z,99309.22
2019-05-20T14:46:37.267Z,99310.02
2019-05-20T14:49:05.195Z,99302.08
2019-05-20T14:51:40.917Z,99308.43
2019-05-20T14:54:08.605Z,99300.94
2019-05-20T14:56:36.423Z,99298.23
2019-05-20T14:59:04.524Z,99303.36
2019-05-20T15:01:32.067Z,99292.83
2019-05-20T15:04:01.635Z,99294.81
2019-05-20T15:06:29.115Z,99295.64
2019-05-20T15:08:57.174Z,99298.79
2019-05-20T15:11:37.018Z,99300.44
2019-05-20T15:13:53.840Z,99296.69
2019-05-20T15:16:21.817Z,99288.80
2019-05-20T15:18:49.570Z,99286.59
2019-05-20T15:21:16.932Z,99286.48
2019-05-20T15:23:44.623Z,99289.57
2019-05-20T15:26:12.464Z,99289.00
2019-05-20T15:28:42.396Z,99280.14
2019-05-20T15:31:09.994Z,99282.53
2019-05-20T15:33:37.635Z,99275.94
2019-05-20T15:36:06.108Z,99277.64
2019-05-20T15:38:34.203Z,99274.12
2019-05-20T15:41:01.506Z,99278.88
2019-05-20T15:43:28.991Z,99276.35
2019-05-20T15:45:58.306Z,99272.73
2019-05-20T15:48:26.827Z,99277.48
2019-05-20T15:50:54.231Z,99273.16
2019-05-20T15:53:21.661Z,99277.38
2019-05-20T15:55:49.156Z,99280.48
2019-05-20T15:58:16.915Z,99278.38
2019-05-20T16:00:44.316Z,99278.00
2019-05-20T16:03:12.012Z,99271.44
2019-05-20T16:05:39.298Z,99271.16
2019-05-20T16:08:07.273Z,99264.89
2019-05-20T16:10:34.719Z,99268.52
2019-05-20T16:13:02.276Z,99260.45
2019-05-20T16:15:30.148Z,99261.67
2019-05-20T16:17:57.824Z,99259.32
2019-05-20T16:20:25.478Z,99259.89
2019-05-20T16:22:52.833Z,99255.77
2019-05-20T16:25:20.600Z,99265.81
2019-05-20T16:27:48.016Z,99261.73
2019-05-20T16:30:15.476Z,99264.27
2019-05-20T16:32:42.795Z,99257.36
2019-05-20T16:35:12.513Z,99251.78
2019-05-20T16:37:42.429Z,99260.52
2019-05-20T16:40:10.204Z,99263.66
2019-05-20T16:42:44.301Z,99265.81
2019-05-20T16:45:19.623Z,99260.95
2019-05-20T16:47:47.408Z,99264.11
2019-05-20T16:50:15.973Z,99263.77
2019-05-20T16:52:45.690Z,99259.55
2019-05-20T16:55:16.098Z,99265.52
2019-05-20T16:57:43.681Z,99260.34
2019-05-20T17:00:29.751Z,99260.88
2019-05-20T17:02:43.538Z,99267.09
2019-05-20T17:05:11.858Z,99262.88
2019-05-20T17:07:39.171Z,99264.41
2019-05-20T17:10:07.210Z,99262.47
2019-05-20T17:12:34.521Z,99260.88
2019-05-20T17:15:02.062Z,99265.95
2019-05-20T17:17:29.534Z,99271.06
2019-05-20T17:19:57.573Z,99266.09
2019-05-20T17:22:25.065Z,99260.31
2019-05-20T17:24:52.411Z,99261.97
2019-05-20T17:27:19.672Z,99270.16
2019-05-20T17:29:47.434Z,99275.09
2019-05-20T17:32:14.789Z,99284.34
2019-05-20T17:34:42.257Z,99290.52
2019-05-20T17:37:10.005Z,99288.77
2019-05-20T17:39:37.922Z,99294.34
2019-05-20T17:42:05.585Z,99300.23
2019-05-20T17:44:33.280Z,99300.98
2019-05-20T17:47:00.727Z,99309.24
2019-05-20T17:49:28.263Z,99320.44
2019-05-20T17:51:56.669Z,99321.52
2019-05-20T17:54:24.157Z,99322.52
2019-05-20T17:56:52.025Z,99320.17
2019-05-20T17:59:19.489Z,99311.47
2019-05-20T18:01:46.841Z,99308.10
2019-05-20T18:04:14.449Z,99307.03
2019-05-20T18:06:42.352Z,99306.94
2019-05-20T18:09:09.946Z,99303.73
2019-05-20T18:11:39.239Z,99303.53
2019-05-20T18:14:06.629Z,99305.92
2019-05-20T18:16:34.049Z,99300.88
2019-05-20T18:19:01.514Z,99304.52
2019-05-20T18:21:29.067Z,99307.00
2019-05-20T18:23:56.959Z,99307.70
2019-05-20T18:26:24.282Z,99309.52
2019-05-20T18:28:51.752Z,99316.23
2019-05-20T18:31:31.762Z,99308.67
2019-05-20T18:33:49.037Z,99310.81
2019-05-20T18:36:16.857Z,99316.11
2019-05-20T18:38:49.233Z,99303.13
2019-05-20T18:41:17.227Z,99305.80
2019-05-20T18:43:44.965Z,99301.22
2019-05-20T18:46:12.452Z,99300.59
2019-05-20T18:48:40.257Z,99305.16
2019-05-20T18:51:07.790Z,99301.90
2019-05-20T18:53:36.189Z,99300.77
2019-05-20T18:56:04.674Z,99304.23
2019-05-20T18:58:32.616Z,99299.36
2019-05-20T19:01:06.767Z,99299.70
2019-05-20T19:03:34.669Z,99298.91
2019-05-20T19:06:02.174Z,99295.59
2019-05-20T19:08:29.654Z,99300.63
2019-05-20T19:10:57.943Z,99296.27
2019-05-20T19:13:25.693Z,99298.89
2019-05-20T19:15:53.058Z,99302.02
2019-05-20T19:18:22.155Z,99295.34
2019-05-20T19:20:50.080Z,99303.77
2019-05-20T19:23:17.889Z,99309.36
2019-05-20T19:25:45.142Z,99311.97
2019-05-20T19:28:13.633Z,99313.75
2019-05-20T19:30:40.970Z,99315.11
2019-05-20T19:33:09.004Z,99323.75
2019-05-20T19:35:36.323Z,99329.02
2019-05-20T19:38:03.583Z,99326.66
2019-05-20T19:40:31.866Z,99327.98
2019-05-20T19:42:59.561Z,99326.19
2019-05-20T19:45:27.134Z,99330.20
2019-05-20T19:47:54.454Z,99329.74
2019-05-20T19:50:22.283Z,99325.70
2019-05-20T19:52:49.694Z,99322.52
2019-05-20T19:55:20.418Z,99323.20
2019-05-20T19:57:49.654Z,99323.70
2019-05-20T20:00:17.762Z,99332.20
2019-05-20T20:02:46.998Z,99329.63
2019-05-20T20:05:14.718Z,99328.42
2019-05-20T20:07:42.329Z,99332.44
2019-05-20T20:10:10.612Z,99339.13
2019-05-20T20:12:38.137Z,99335.20
2019-05-20T20:15:06.101Z,99343.97
2019-05-20T20:17:34.519Z,99344.89
2019-05-20T20:20:02.546Z,99342.20
2019-05-20T20:22:30.171Z,99339.75
2019-05-20T20:24:57.606Z,99345.98
2019-05-20T20:27:25.070Z,99340.50
2019-05-20T20:29:52.826Z,99350.05
2019-05-20T20:32:35.214Z,99349.75
2019-05-20T20:34:49.675Z,99358.44
2019-05-20T20:37:18.071Z,99354.59
2019-05-20T20:39:45.429Z,99358.67
2019-05-20T20:42:12.813Z,99357.08
2019-05-20T20:44:40.564Z,99372.59
2019-05-20T20:47:07.899Z,99373.36
2019-05-20T20:49:35.283Z,99369.83
2019-05-20T20:52:02.628Z,99370.75
2019-05-20T20:54:30.499Z,99377.59
2019-05-20T20:56:58.875Z,99374.67
2019-05-20T20:59:26.231Z,99372.17
2019-05-20T21:01:58.767Z,99375.13
2019-05-20T21:04:24.047Z,99371.52
2019-05-20T21:06:51.468Z,99373.82
2019-05-20T21:09:18.997Z,99368.36
2019-05-20T21:11:46.707Z,99372.05
2019-05-20T21:14:14.343Z,99364.66
2019-05-20T21:16:41.631Z,99370.13
2019-05-20T21:19:10.279Z,99359.93
2019-05-20T21:21:37.602Z,99348.62
2019-05-20T21:24:05.354Z,99348.92
2019-05-20T21:26:32.916Z,99349.98
2019-05-20T21:29:00.279Z,99357.44
2019-05-20T21:31:28.260Z,99349.16
2019-05-20T21:33:55.623Z,99351.92
2019-05-20T21:36:22.980Z,99352.45
2019-05-20T21:38:50.351Z,99352.07
2019-05-20T21:41:18.526Z,99356.13
2019-05-20T21:43:47.328Z,99350.16
2019-05-20T21:46:14.699Z,99358.94
2019-05-20T21:48:42.151Z,99360.05
2019-05-20T21:51:10.912Z,99357.73
2019-05-20T21:53:38.415Z,99361.89
2019-05-20T21:56:05.876Z,99358.40
2019-05-20T21:58:33.644Z,99361.37
2019-05-20T22:01:01.625Z,99361.00
2019-05-20T22:03:29.453Z,99365.80
2019-05-20T22:05:57.235Z,99366.30
2019-05-20T22:08:24.527Z,99374.14
2019-05-20T22:10:52.323Z,99371.04
2019-05-20T22:13:19.669Z,99377.34
2019-05-20T22:15:47.035Z,99377.02
2019-05-20T22:18:14.363Z,99383.98
2019-05-20T22:20:42.388Z,99383.09
2019-05-20T22:23:41.846Z,99377.93
2019-05-20T22:26:09.303Z,99385.09
2019-05-20T22:28:37.063Z,99391.35
2019-05-20T22:31:04.679Z,99398.78
2019-05-20T22:33:40.970Z,99400.70
2019-05-20T22:36:01.587Z,99395.00
2019-05-20T22:38:29.352Z,99406.33
2019-05-20T22:41:06.306Z,99398.26
2019-05-20T22:43:38.518Z,99401.72
2019-05-20T22:46:06.577Z,99407.57
2019-05-20T22:48:34.462Z,99400.30
2019-05-20T22:51:01.953Z,99398.77
2019-05-20T22:53:29.574Z,99393.52
2019-05-20T22:55:57.252Z,99396.58
2019-05-20T22:58:24.695Z,99392.00
2019-05-20T23:00:52.924Z,99395.83
2019-05-20T23:03:20.980Z,99399.30
2019-05-20T23:05:49.240Z,99401.00
2019-05-20T23:08:16.623Z,99386.27
2019-05-20T23:10:44.004Z,99384.59
2019-05-20T23:13:11.289Z,99376.52
2019-05-20T23:15:39.232Z,99380.36
2019-05-20T23:18:07.712Z,99379.61
2019-05-20T23:20:35.277Z,99382.23
2019-05-20T23:23:03.045Z,99376.03
2019-05-20T23:25:31.734Z,99367.77
2019-05-20T23:27:59.290Z,99365.92
2019-05-20T23:30:26.745Z,99362.14
2019-05-20T23:32:54.310Z,99355.58
2019-05-20T23:35:23.342Z,99354.02
2019-05-20T23:37:50.876Z,99354.00
2019-05-20T23:40:18.276Z,99353.55
2019-05-20T23:42:45.737Z,99346.81
2019-05-20T23:45:13.897Z,99354.98
2019-05-20T23:47:41.372Z,99343.09
2019-05-20T23:50:09.085Z,99350.66
2019-05-20T23:52:36.633Z,99355.23
2019-05-20T23:55:05.486Z,99353.03
2019-05-20T23:57:32.865Z,99347.36
